Time;durP1;ratioP1;P1;durP2;ratioP2;P2;SDS_P1;SDS_P2;PMS_P1;PMS_P2;Temp;Humidity;BMP_temperature;BMP_pressure;BME280_temperature;BME280_humidity;BME280_pressure;Samples;Min_cycle;Max_cycle;Signal;HPM_P1;HPM_P2
2024/01/01 00:01:36;;;;;;;67.97;45.33;;;6.60;83.20;;;;;;5023048;28;20060;-73
2024/01/01 00:04:02;;;;;;;66.13;39.07;;;6.60;83.30;;;;;;5025246;28;20401;-73
2024/01/01 00:06:27;;;;;;;65.03;39.40;;;6.60;83.50;;;;;;5042927;28;20080;-72
2024/01/01 00:08:53;;;;;;;63.30;40.63;;;6.60;83.70;;;;;;5039246;28;20501;-75
2024/01/01 00:11:18;;;;;;;62.93;40.63;;;6.60;83.70;;;;;;5042982;28;20118;-73
2024/01/01 00:13:44;;;;;;;62.43;38.30;;;6.50;83.90;;;;;;5038790;28;20141;-72
2024/01/01 00:16:10;;;;;;;72.17;46.17;;;6.50;84.00;;;;;;5033809;28;20084;-74
2024/01/01 00:18:35;;;;;;;79.30;49.30;;;6.50;84.00;;;;;;5026878;28;20057;-72
2024/01/01 00:21:02;;;;;;;71.47;48.23;;;6.50;84.10;;;;;;5038371;28;20077;-72
2024/01/01 00:23:27;;;;;;;108.77;71.73;;;6.50;84.10;;;;;;5031643;28;20468;-73
2024/01/01 00:25:53;;;;;;;72.83;45.90;;;6.50;84.00;;;;;;5014789;28;20124;-69
2024/01/01 00:28:19;;;;;;;67.60;42.50;;;6.50;83.90;;;;;;5037764;28;20059;-72
2024/01/01 00:30:45;;;;;;;77.17;41.73;;;6.50;83.90;;;;;;5029203;28;20061;-73
2024/01/01 00:33:10;;;;;;;58.20;34.70;;;6.50;83.90;;;;;;5029724;28;20049;-73
2024/01/01 00:35:36;;;;;;;60.80;33.97;;;6.50;83.80;;;;;;5041906;28;20380;-73
2024/01/01 00:38:02;;;;;;;54.67;30.53;;;6.50;83.80;;;;;;5025887;28;20049;-74
2024/01/01 00:40:28;;;;;;;32.57;20.13;;;6.50;83.80;;;;;;5034520;28;20057;-73
2024/01/01 00:42:54;;;;;;;29.57;17.60;;;6.50;83.40;;;;;;5028873;28;20099;-72
2024/01/01 00:45:19;;;;;;;31.10;17.13;;;6.40;83.00;;;;;;5033906;28;20057;-72
2024/01/01 00:47:45;;;;;;;21.40;11.83;;;6.40;82.70;;;;;;5037033;28;20136;-74
2024/01/01 00:50:11;;;;;;;18.83;11.57;;;6.30;81.80;;;;;;5041431;28;20374;-73
2024/01/01 00:52:37;;;;;;;12.57;7.20;;;6.30;81.90;;;;;;5036755;28;20412;-73
2024/01/01 00:55:03;;;;;;;13.70;7.10;;;6.30;81.30;;;;;;5032287;28;20068;-74
2024/01/01 00:57:29;;;;;;;15.07;8.50;;;6.20;80.90;;;;;;5017340;28;20050;-74
2024/01/01 00:59:54;;;;;;;18.90;11.40;;;6.20;80.90;;;;;;5026647;28;20049;-71
2024/01/01 01:02:20;;;;;;;26.07;16.27;;;6.20;81.40;;;;;;5023754;28;20107;-73
2024/01/01 01:04:47;;;;;;;27.50;17.50;;;6.20;81.90;;;;;;5015239;28;20057;-72
2024/01/01 01:07:13;;;;;;;34.03;21.17;;;6.30;82.20;;;;;;5027505;28;20053;-73
2024/01/01 01:09:39;;;;;;;32.43;21.40;;;6.30;82.50;;;;;;5027951;28;20052;-72
2024/01/01 01:12:05;;;;;;;40.07;22.90;;;6.30;82.70;;;;;;5006068;28;20428;-72
2024/01/01 01:14:30;;;;;;;40.57;24.00;;;6.30;82.90;;;;;;5019802;28;20388;-72
2024/01/01 01:16:56;;;;;;;43.73;24.97;;;6.30;83.10;;;;;;5016685;28;20119;-73
2024/01/01 01:19:22;;;;;;;40.77;24.80;;;6.30;83.20;;;;;;5007526;28;20046;-73
2024/01/01 01:21:47;;;;;;;48.40;27.00;;;6.30;83.20;;;;;;5006990;28;20572;-73
2024/01/01 01:24:18;;;;;;;46.43;27.13;;;6.30;83.20;;;;;;5008589;28;20057;-72
2024/01/01 01:26:43;;;;;;;52.73;28.93;;;6.40;83.40;;;;;;5007562;28;20046;-73
2024/01/01 01:29:09;;;;;;;60.63;34.03;;;6.40;83.30;;;;;;5010408;28;20758;-72
2024/01/01 01:31:35;;;;;;;55.07;32.57;;;6.40;83.00;;;;;;5027524;28;20065;-71
2024/01/01 01:34:01;;;;;;;61.57;34.40;;;6.30;83.00;;;;;;5034372;28;20053;-72
2024/01/01 01:36:27;;;;;;;57.23;36.67;;;6.40;82.70;;;;;;5028139;28;20460;-73
2024/01/01 01:38:52;;;;;;;65.97;40.97;;;6.40;82.50;;;;;;5028039;28;20057;-74
2024/01/01 01:41:18;;;;;;;62.33;40.80;;;6.40;82.30;;;;;;5023864;28;20049;-73
2024/01/01 01:43:44;;;;;;;67.53;42.50;;;6.40;82.20;;;;;;5031011;28;20060;-72
2024/01/01 01:46:13;;;;;;;68.57;41.93;;;6.40;82.00;;;;;;5036829;28;20056;-72
2024/01/01 01:48:39;;;;;;;66.40;43.87;;;6.40;81.90;;;;;;5027469;28;20128;-72
2024/01/01 01:51:06;;;;;;;72.53;45.37;;;6.50;81.70;;;;;;5027765;28;20057;-72
2024/01/01 01:53:31;;;;;;;69.63;43.87;;;6.50;81.70;;;;;;5028326;28;20068;-72
2024/01/01 01:56:02;;;;;;;69.67;46.17;;;6.50;81.50;;;;;;5027278;28;20045;-72
2024/01/01 01:58:28;;;;;;;63.67;44.17;;;6.50;81.40;;;;;;5028397;28;20056;-73
2024/01/01 02:00:55;;;;;;;62.53;42.40;;;6.60;81.10;;;;;;5027461;28;20097;-70
2024/01/01 02:03:20;;;;;;;64.20;41.93;;;6.60;81.00;;;;;;5028010;28;20049;-72
2024/01/01 02:05:46;;;;;;;58.07;39.30;;;6.60;80.80;;;;;;5027014;28;20119;-74
2024/01/01 02:08:13;;;;;;;66.73;43.23;;;6.60;80.80;;;;;;5026732;28;20487;-73
2024/01/01 02:10:38;;;;;;;60.53;40.97;;;6.60;80.80;;;;;;5027606;28;20058;-73
2024/01/01 02:13:04;;;;;;;61.63;38.73;;;6.60;80.70;;;;;;5027878;28;20123;-72
2024/01/01 02:15:30;;;;;;;53.27;34.50;;;6.70;80.40;;;;;;5027560;28;20049;-72
2024/01/01 02:17:55;;;;;;;49.87;34.57;;;6.70;80.20;;;;;;5027211;28;20481;-73
2024/01/01 02:20:21;;;;;;;47.90;31.87;;;6.70;80.30;;;;;;5027750;28;20080;-72
2024/01/01 02:22:47;;;;;;;48.80;31.57;;;6.70;80.00;;;;;;5026230;28;20053;-73
2024/01/01 02:25:12;;;;;;;49.00;32.07;;;6.70;80.10;;;;;;5026740;28;20080;-73
2024/01/01 02:27:41;;;;;;;48.13;29.73;;;6.70;79.90;;;;;;5026674;28;20531;-73
2024/01/01 02:30:10;;;;;;;47.97;30.40;;;6.70;80.00;;;;;;5027531;28;20057;-72
2024/01/01 02:32:37;;;;;;;46.20;31.30;;;6.70;80.10;;;;;;5011639;28;20160;-73
2024/01/01 02:35:08;;;;;;;50.30;31.60;;;6.70;80.50;;;;;;5027072;28;20057;-73
2024/01/01 02:37:35;;;;;;;50.00;33.15;;;6.60;80.40;;;;;;5027001;28;20045;-73
2024/01/01 02:40:01;;;;;;;55.60;34.03;;;6.60;80.90;;;;;;5008663;28;20100;-73
2024/01/01 02:42:29;;;;;;;59.47;36.70;;;6.50;81.40;;;;;;5006648;28;20054;-74
2024/01/01 02:44:55;;;;;;;57.73;37.40;;;6.40;81.70;;;;;;5008101;28;20042;-73
2024/01/01 02:47:21;;;;;;;66.03;37.77;;;6.30;82.20;;;;;;5007642;28;20072;-75
2024/01/01 02:49:46;;;;;;;63.13;38.07;;;6.20;82.60;;;;;;5006489;28;20549;-73
2024/01/01 02:52:12;;;;;;;69.37;36.17;;;6.20;82.70;;;;;;5006193;28;20385;-73
2024/01/01 02:54:37;;;;;;;61.27;34.93;;;6.10;82.80;;;;;;5007742;28;20064;-73
2024/01/01 02:57:03;;;;;;;50.47;33.27;;;6.10;83.00;;;;;;5024239;28;20053;-72
2024/01/01 02:59:29;;;;;;;55.93;34.90;;;6.10;83.20;;;;;;5026065;28;20111;-73
2024/01/01 03:01:54;;;;;;;51.60;29.47;;;6.00;83.10;;;;;;5025914;28;20045;-72
2024/01/01 03:04:20;;;;;;;44.30;26.60;;;6.00;83.10;;;;;;5015890;28;20100;-72
2024/01/01 03:06:46;;;;;;;49.43;29.00;;;6.00;83.20;;;;;;5026033;28;20061;-73
2024/01/01 03:09:11;;;;;;;47.77;27.97;;;6.00;83.20;;;;;;5026666;28;20041;-72
2024/01/01 03:11:38;;;;;;;44.60;27.43;;;5.90;83.30;;;;;;5026390;28;20370;-73
2024/01/01 03:14:04;;;;;;;45.33;26.63;;;6.00;83.50;;;;;;5026548;28;20551;-73
2024/01/01 03:16:29;;;;;;;43.53;26.70;;;5.90;83.60;;;;;;5025947;28;20057;-73
2024/01/01 03:18:55;;;;;;;45.03;28.07;;;5.90;83.70;;;;;;5024385;28;20112;-73
2024/01/01 03:21:21;;;;;;;50.00;27.20;;;5.90;83.90;;;;;;5025163;28;20073;-72
2024/01/01 03:23:46;;;;;;;46.70;28.63;;;5.90;84.00;;;;;;5026532;28;20077;-72
2024/01/01 03:26:12;;;;;;;48.67;28.70;;;5.90;84.00;;;;;;5025603;28;20140;-73
2024/01/01 03:28:38;;;;;;;45.67;27.17;;;5.90;84.20;;;;;;5026561;28;20428;-73
2024/01/01 03:31:04;;;;;;;41.27;25.30;;;5.90;84.20;;;;;;5025764;28;20115;-72
2024/01/01 03:33:34;;;;;;;38.87;24.30;;;5.80;84.30;;;;;;5018343;28;20049;-72
2024/01/01 03:36:00;;;;;;;40.60;23.60;;;5.80;84.20;;;;;;5025498;28;20053;-73
2024/01/01 03:38:25;;;;;;;38.73;21.93;;;5.80;84.20;;;;;;5026821;28;20049;-72
2024/01/01 03:40:51;;;;;;;41.67;21.53;;;5.80;84.40;;;;;;5026058;28;20397;-73
2024/01/01 03:43:16;;;;;;;38.87;19.47;;;5.80;84.50;;;;;;5025828;28;20412;-73
2024/01/01 03:45:42;;;;;;;30.40;19.63;;;5.90;84.60;;;;;;5026081;28;20057;-73
2024/01/01 03:48:08;;;;;;;35.10;18.47;;;5.90;84.50;;;;;;5025452;28;20049;-73
2024/01/01 03:50:34;;;;;;;31.40;18.00;;;5.90;84.50;;;;;;5025642;28;20132;-72
2024/01/01 03:52:59;;;;;;;31.53;16.87;;;5.90;84.50;;;;;;5026326;28;20136;-72
2024/01/01 03:55:25;;;;;;;31.97;17.33;;;5.90;84.70;;;;;;5026387;28;20128;-72
2024/01/01 03:57:51;;;;;;;29.70;15.50;;;5.90;84.60;;;;;;5026714;28;20049;-73
2024/01/01 04:00:17;;;;;;;27.13;14.70;;;5.90;84.70;;;;;;5015045;28;20482;-72
2024/01/01 04:02:43;;;;;;;32.97;16.17;;;5.90;84.80;;;;;;5019818;28;20104;-72
2024/01/01 04:05:10;;;;;;;28.57;13.80;;;5.90;84.90;;;;;;5019769;28;20045;-73
2024/01/01 04:07:37;;;;;;;23.47;12.00;;;5.90;85.00;;;;;;5025191;28;20049;-72
2024/01/01 04:10:06;;;;;;;27.77;11.67;;;5.90;85.00;;;;;;5025785;28;20094;-72
2024/01/01 04:12:32;;;;;;;23.07;11.07;;;5.90;84.90;;;;;;5024600;28;20056;-73
2024/01/01 04:14:58;;;;;;;27.40;11.83;;;5.90;84.90;;;;;;5025435;28;20064;-73
2024/01/01 04:17:24;;;;;;;24.03;10.97;;;5.90;84.90;;;;;;5025734;28;20045;-73
2024/01/01 04:19:49;;;;;;;23.37;10.30;;;5.80;84.90;;;;;;5018018;28;20065;-73
2024/01/01 04:22:16;;;;;;;26.07;10.80;;;5.80;85.00;;;;;;5024726;28;20045;-73
2024/01/01 04:24:42;;;;;;;21.97;9.57;;;5.80;85.00;;;;;;5025679;28;20133;-72
2024/01/01 04:27:08;;;;;;;17.73;9.40;;;5.80;85.00;;;;;;5024878;28;20045;-73
2024/01/01 04:29:34;;;;;;;22.57;9.53;;;5.80;85.00;;;;;;5019258;28;20382;-73
2024/01/01 04:32:00;;;;;;;20.43;9.13;;;5.80;85.00;;;;;;5004833;28;20046;-73
2024/01/01 04:34:25;;;;;;;19.77;8.00;;;5.80;85.10;;;;;;5024502;28;20061;-72
2024/01/01 04:36:51;;;;;;;23.73;8.10;;;5.80;85.20;;;;;;5025850;28;20129;-74
2024/01/01 04:39:16;;;;;;;25.20;7.67;;;5.80;85.10;;;;;;5025581;28;20059;-72
2024/01/01 04:41:42;;;;;;;20.37;7.23;;;5.80;85.10;;;;;;5025635;28;20052;-73
2024/01/01 04:44:08;;;;;;;16.60;7.33;;;5.70;85.10;;;;;;5024352;28;20072;-73
2024/01/01 04:46:33;;;;;;;20.17;7.70;;;5.70;85.20;;;;;;5024946;28;20128;-73
2024/01/01 04:48:59;;;;;;;17.73;7.20;;;5.70;85.30;;;;;;5027146;28;20123;-74
2024/01/01 04:51:25;;;;;;;17.73;6.63;;;5.70;85.30;;;;;;5028945;28;20046;-72
2024/01/01 04:53:51;;;;;;;20.10;7.43;;;5.70;85.40;;;;;;5029566;28;20693;-73
2024/01/01 04:56:19;;;;;;;19.33;6.87;;;5.60;85.40;;;;;;5029019;28;20048;-73
2024/01/01 04:58:45;;;;;;;16.67;6.53;;;5.70;85.40;;;;;;5029891;28;20053;-72
2024/01/01 05:01:10;;;;;;;15.83;5.73;;;5.60;85.40;;;;;;5030667;28;20053;-74
2024/01/01 05:03:36;;;;;;;19.07;5.97;;;5.60;85.40;;;;;;5004564;28;20054;-72
2024/01/01 05:06:02;;;;;;;17.53;6.20;;;5.60;85.60;;;;;;5008362;28;20061;-75
2024/01/01 05:08:27;;;;;;;21.80;6.27;;;5.60;85.60;;;;;;5009790;28;20153;-74
2024/01/01 05:10:53;;;;;;;12.97;5.83;;;5.60;85.50;;;;;;5009163;28;20541;-74
2024/01/01 05:13:19;;;;;;;19.77;6.43;;;5.60;85.70;;;;;;5017916;28;20042;-74
2024/01/01 05:15:44;;;;;;;15.90;5.90;;;5.60;85.70;;;;;;5015335;28;20103;-75
2024/01/01 05:18:10;;;;;;;16.90;6.70;;;5.60;85.70;;;;;;5025756;28;20312;-74
2024/01/01 05:20:36;;;;;;;14.73;5.60;;;5.60;85.70;;;;;;5022225;28;20076;-74
2024/01/01 05:23:01;;;;;;;16.80;6.00;;;5.60;85.90;;;;;;5028674;28;20470;-74
2024/01/01 05:25:27;;;;;;;21.57;6.30;;;5.60;86.00;;;;;;5028575;28;20349;-73
2024/01/01 05:27:53;;;;;;;22.97;7.07;;;5.60;86.00;;;;;;5027471;28;20112;-75
2024/01/01 05:30:19;;;;;;;22.93;6.80;;;5.60;86.00;;;;;;5027758;28;20041;-74
2024/01/01 05:32:44;;;;;;;17.13;6.53;;;5.60;86.20;;;;;;5028721;28;20057;-75
2024/01/01 05:35:10;;;;;;;14.43;5.77;;;5.60;86.30;;;;;;5027368;28;20137;-73
2024/01/01 05:37:36;;;;;;;20.50;6.37;;;5.60;86.30;;;;;;5026899;28;20128;-74
2024/01/01 05:40:02;;;;;;;20.70;7.20;;;5.60;86.30;;;;;;5027575;28;20084;-73
2024/01/01 05:42:31;;;;;;;21.37;6.27;;;5.60;86.40;;;;;;5027113;28;20045;-74
2024/01/01 05:44:57;;;;;;;19.07;6.60;;;5.60;86.40;;;;;;5026809;28;20061;-73
2024/01/01 05:47:22;;;;;;;21.90;6.67;;;5.60;86.50;;;;;;5024370;28;20250;-74
2024/01/01 05:49:48;;;;;;;17.70;5.93;;;5.60;86.50;;;;;;5026871;28;20127;-74
2024/01/01 05:52:14;;;;;;;17.17;6.40;;;5.70;86.50;;;;;;5026071;28;20045;-74
2024/01/01 05:54:40;;;;;;;22.10;6.37;;;5.70;86.50;;;;;;5027499;28;20554;-74
2024/01/01 05:57:05;;;;;;;19.00;7.97;;;5.70;86.60;;;;;;5026084;28;20050;-74
2024/01/01 05:59:31;;;;;;;17.23;6.23;;;5.70;86.60;;;;;;5028092;28;20103;-73
2024/01/01 06:01:57;;;;;;;20.53;6.60;;;5.70;86.60;;;;;;5015649;28;20103;-72
2024/01/01 06:04:22;;;;;;;18.53;5.50;;;5.70;86.60;;;;;;5027519;28;20551;-72
2024/01/01 06:06:48;;;;;;;19.87;6.13;;;5.70;86.60;;;;;;5026936;28;20504;-76
2024/01/01 06:09:13;;;;;;;15.90;5.13;;;5.80;86.60;;;;;;5027133;28;20459;-73
2024/01/01 06:11:39;;;;;;;20.07;5.63;;;5.80;86.50;;;;;;5027535;28;20061;-73
2024/01/01 06:14:05;;;;;;;20.60;6.20;;;5.80;86.50;;;;;;5028102;28;20104;-75
2024/01/01 06:16:30;;;;;;;16.90;5.03;;;5.80;86.60;;;;;;5027237;28;20415;-74
2024/01/01 06:18:57;;;;;;;22.90;4.53;;;5.80;86.60;;;;;;5018576;28;20054;-74
2024/01/01 06:21:23;;;;;;;16.43;4.90;;;5.80;86.50;;;;;;5024935;28;20049;-74
2024/01/01 06:23:48;;;;;;;18.73;5.73;;;5.80;86.60;;;;;;5026094;28;20053;-73
2024/01/01 06:26:14;;;;;;;14.83;5.77;;;5.80;86.50;;;;;;5026300;28;20076;-73
2024/01/01 06:28:40;;;;;;;14.20;4.23;;;5.80;86.50;;;;;;5037312;28;20083;-73
2024/01/01 06:31:05;;;;;;;15.00;4.10;;;5.80;86.40;;;;;;5039156;28;20420;-73
2024/01/01 06:33:31;;;;;;;19.47;4.47;;;5.80;86.40;;;;;;5033271;28;20102;-76
2024/01/01 06:35:57;;;;;;;13.90;4.40;;;5.80;86.40;;;;;;5040585;28;20474;-73
2024/01/01 06:38:22;;;;;;;11.93;3.40;;;5.80;86.40;;;;;;5036911;28;20049;-74
2024/01/01 06:40:48;;;;;;;13.33;3.67;;;5.80;86.40;;;;;;5041844;28;20452;-73
2024/01/01 06:43:14;;;;;;;11.60;3.57;;;5.80;86.30;;;;;;5034420;28;20059;-74
2024/01/01 06:45:40;;;;;;;13.87;3.53;;;5.80;86.40;;;;;;5032034;28;20065;-74
2024/01/01 06:48:05;;;;;;;21.77;4.80;;;5.90;86.30;;;;;;5043902;28;20048;-73
2024/01/01 06:50:31;;;;;;;19.07;4.53;;;5.90;86.40;;;;;;5042113;28;20054;-74
2024/01/01 06:52:57;;;;;;;17.87;5.47;;;5.90;86.40;;;;;;5039697;28;20045;-74
2024/01/01 06:55:22;;;;;;;19.37;5.00;;;5.90;86.50;;;;;;5023744;28;20045;-74
2024/01/01 06:57:49;;;;;;;15.23;5.20;;;6.00;86.50;;;;;;5024576;28;20068;-74
2024/01/01 07:00:15;;;;;;;18.37;6.60;;;6.00;86.60;;;;;;5020626;28;20382;-74
2024/01/01 07:02:41;;;;;;;23.10;5.70;;;6.00;86.70;;;;;;5032139;28;20356;-73
2024/01/01 07:05:07;;;;;;;18.20;5.67;;;5.90;86.60;;;;;;5014723;28;20118;-73
2024/01/01 07:07:33;;;;;;;21.10;5.47;;;6.00;86.60;;;;;;5004774;28;20046;-74
2024/01/01 07:09:59;;;;;;;23.70;6.00;;;6.00;86.70;;;;;;5003335;28;20041;-73
2024/01/01 07:12:28;;;;;;;19.23;5.07;;;6.00;86.70;;;;;;5003628;28;20108;-74
2024/01/01 07:14:54;;;;;;;21.63;6.03;;;6.00;86.80;;;;;;5002361;28;20497;-74
2024/01/01 07:17:20;;;;;;;27.37;6.57;;;6.10;86.70;;;;;;5013773;28;20057;-74
2024/01/01 07:19:46;;;;;;;28.47;5.53;;;6.10;86.80;;;;;;5023820;28;20559;-74
2024/01/01 07:22:12;;;;;;;15.87;3.87;;;6.10;86.70;;;;;;5009802;28;20050;-75
2024/01/01 07:24:39;;;;;;;7.20;1.67;;;6.00;86.60;;;;;;5019840;28;20049;-75
2024/01/01 07:27:05;;;;;;;8.43;0.90;;;5.90;85.80;;;;;;5015846;28;20572;-75
2024/01/01 07:29:31;;;;;;;3.97;0.67;;;5.80;85.10;;;;;;5019544;28;20505;-75
2024/01/01 07:31:57;;;;;;;5.67;1.23;;;5.60;85.00;;;;;;5017506;28;20088;-74
2024/01/01 07:34:24;;;;;;;6.67;0.90;;;5.50;85.20;;;;;;5009723;28;20069;-74
2024/01/01 07:36:51;;;;;;;3.07;0.67;;;5.50;85.20;;;;;;5021350;28;20045;-74
2024/01/01 07:39:19;;;;;;;4.17;0.90;;;5.40;85.20;;;;;;5028027;28;20068;-75
2024/01/01 07:41:49;;;;;;;2.10;0.83;;;5.30;85.20;;;;;;5034891;28;20124;-75
2024/01/01 07:44:15;;;;;;;3.43;1.10;;;5.30;85.30;;;;;;5034943;28;20084;-74
2024/01/01 07:46:46;;;;;;;4.37;1.10;;;5.30;85.30;;;;;;5026511;28;20057;-74
2024/01/01 07:49:12;;;;;;;5.30;1.10;;;5.30;85.50;;;;;;5020248;28;20120;-74
2024/01/01 07:51:37;;;;;;;5.17;0.97;;;5.30;85.60;;;;;;5016550;28;20129;-75
2024/01/01 07:54:03;;;;;;;6.30;1.30;;;5.30;85.80;;;;;;5014493;28;20053;-74
2024/01/01 07:56:29;;;;;;;8.90;1.60;;;5.40;85.90;;;;;;5004771;28;20053;-74
2024/01/01 07:58:54;;;;;;;8.77;1.50;;;5.50;86.00;;;;;;5023506;28;20045;-74
2024/01/01 08:01:20;;;;;;;11.07;1.60;;;5.50;86.00;;;;;;5013705;28;20052;-74
2024/01/01 08:03:46;;;;;;;5.53;0.83;;;5.50;86.10;;;;;;5021747;28;20148;-73
2024/01/01 08:06:12;;;;;;;4.07;0.80;;;5.50;86.00;;;;;;5022194;28;20115;-74
2024/01/01 08:08:38;;;;;;;5.30;0.93;;;5.50;86.00;;;;;;5025752;28;20156;-74
2024/01/01 08:11:04;;;;;;;5.33;1.20;;;5.50;86.00;;;;;;5020496;28;20053;-74
2024/01/01 08:13:30;;;;;;;3.53;1.23;;;5.50;85.90;;;;;;5000787;28;20065;-73
2024/01/01 08:15:55;;;;;;;4.67;0.70;;;5.50;86.00;;;;;;5030735;28;20061;-74
2024/01/01 08:18:21;;;;;;;4.03;0.90;;;5.50;85.90;;;;;;5022621;28;20053;-74
2024/01/01 08:20:47;;;;;;;5.37;0.80;;;5.50;85.90;;;;;;5022583;28;20057;-74
2024/01/01 08:23:12;;;;;;;5.87;1.10;;;5.50;85.90;;;;;;5024478;28;20041;-74
2024/01/01 08:25:39;;;;;;;9.30;1.50;;;5.50;85.80;;;;;;5026277;28;20060;-73
2024/01/01 08:28:05;;;;;;;6.53;1.50;;;5.50;85.80;;;;;;5029103;28;20052;-74
2024/01/01 08:30:31;;;;;;;8.67;1.50;;;5.50;86.00;;;;;;5028246;28;20041;-73
2024/01/01 08:32:58;;;;;;;9.23;2.03;;;5.60;85.90;;;;;;5033850;28;20055;-74
2024/01/01 08:35:23;;;;;;;11.47;1.83;;;5.60;85.90;;;;;;5030191;28;20057;-74
2024/01/01 08:37:49;;;;;;;10.37;1.90;;;5.60;85.90;;;;;;5029970;28;20265;-74
2024/01/01 08:40:15;;;;;;;9.10;1.90;;;5.60;86.00;;;;;;5028654;28;20064;-73
2024/01/01 08:42:41;;;;;;;4.40;1.60;;;5.70;86.00;;;;;;5029368;28;20115;-74
2024/01/01 08:45:07;;;;;;;11.10;2.13;;;5.70;85.90;;;;;;5029033;28;20060;-73
2024/01/01 08:47:33;;;;;;;10.20;2.13;;;5.70;85.90;;;;;;5029720;28;20041;-74
2024/01/01 08:49:59;;;;;;;10.37;2.00;;;5.70;86.00;;;;;;5028163;28;20060;-74
2024/01/01 08:52:25;;;;;;;12.90;2.27;;;5.70;86.00;;;;;;5028638;28;20041;-75
2024/01/01 08:54:50;;;;;;;11.47;2.20;;;5.70;86.00;;;;;;5029282;28;20385;-74
2024/01/01 08:57:16;;;;;;;15.03;2.70;;;5.70;86.20;;;;;;5028522;28;20049;-74
2024/01/01 08:59:42;;;;;;;18.97;2.40;;;5.70;86.20;;;;;;5029688;28;20396;-74
2024/01/01 09:02:09;;;;;;;11.03;3.07;;;5.80;86.30;;;;;;5027006;28;20392;-75
2024/01/01 09:04:35;;;;;;;10.00;2.60;;;5.80;86.50;;;;;;5028894;28;20047;-75
2024/01/01 09:07:02;;;;;;;9.80;2.47;;;5.80;86.40;;;;;;5026640;28;20053;-75
2024/01/01 09:09:29;;;;;;;11.70;2.37;;;5.70;86.30;;;;;;5028884;28;20057;-74
2024/01/01 09:11:55;;;;;;;11.03;2.43;;;5.80;86.10;;;;;;5028385;28;20049;-74
2024/01/01 09:14:20;;;;;;;17.40;2.47;;;5.70;86.10;;;;;;5027968;28;20045;-75
2024/01/01 09:16:47;;;;;;;14.57;2.80;;;5.80;86.10;;;;;;5029097;28;20480;-75
2024/01/01 09:19:15;;;;;;;11.80;2.37;;;5.70;86.20;;;;;;5021253;28;20048;-75
2024/01/01 09:21:40;;;;;;;12.90;2.63;;;5.80;86.30;;;;;;5026504;28;20060;-75
2024/01/01 09:24:09;;;;;;;8.00;1.97;;;5.80;86.40;;;;;;5028489;28;20050;-75
2024/01/01 09:26:35;;;;;;;7.87;2.00;;;5.80;86.30;;;;;;5028108;28;20076;-74
2024/01/01 09:29:01;;;;;;;6.60;1.60;;;5.70;86.20;;;;;;5028055;28;20072;-74
2024/01/01 09:31:27;;;;;;;4.40;1.40;;;5.70;85.90;;;;;;5027726;28;20049;-74
2024/01/01 09:34:00;;;;;;;6.03;1.63;;;5.70;85.70;;;;;;5027825;28;20084;-74
2024/01/01 09:36:26;;;;;;;6.70;1.30;;;5.70;85.50;;;;;;5015896;28;20521;-73
2024/01/01 09:38:52;;;;;;;8.07;1.40;;;5.70;85.40;;;;;;5009238;28;20413;-73
2024/01/01 09:41:18;;;;;;;10.40;1.90;;;5.70;85.30;;;;;;5026363;28;20175;-73
2024/01/01 09:43:44;;;;;;;8.27;1.40;;;5.70;85.20;;;;;;5028289;28;20378;-73
2024/01/01 09:46:13;;;;;;;7.40;1.60;;;5.80;85.10;;;;;;5023112;28;20050;-72
2024/01/01 09:48:38;;;;;;;7.50;1.63;;;5.80;85.10;;;;;;5010081;28;20440;-74
2024/01/01 09:51:05;;;;;;;11.57;2.27;;;5.90;85.00;;;;;;5027228;28;20049;-76
2024/01/01 09:53:31;;;;;;;13.27;2.40;;;5.90;85.10;;;;;;5028290;28;20077;-73
2024/01/01 09:55:57;;;;;;;16.60;2.40;;;6.00;85.10;;;;;;5027842;28;20096;-73
2024/01/01 09:58:23;;;;;;;16.07;2.43;;;6.00;85.20;;;;;;5026441;28;20050;-74
2024/01/01 10:00:49;;;;;;;14.90;2.50;;;6.00;85.20;;;;;;5019571;28;20072;-74
2024/01/01 10:03:14;;;;;;;12.47;2.70;;;6.10;85.20;;;;;;5027571;28;20045;-74
2024/01/01 10:05:48;;;;;;;11.43;2.03;;;6.10;85.30;;;;;;5027293;28;20053;-74
2024/01/01 10:08:15;;;;;;;12.30;2.33;;;6.10;85.40;;;;;;5023818;28;20539;-75
2024/01/01 10:10:42;;;;;;;14.23;2.20;;;6.10;85.50;;;;;;5026044;28;20056;-74
2024/01/01 10:13:08;;;;;;;15.83;2.73;;;6.10;85.50;;;;;;5021836;28;20107;-74
2024/01/01 10:15:37;;;;;;;20.00;3.17;;;6.10;85.70;;;;;;5025945;28;20041;-74
2024/01/01 10:18:14;;;;;;;17.73;3.03;;;6.10;85.70;;;;;;5008062;28;20046;-74
2024/01/01 10:20:43;;;;;;;20.40;3.30;;;6.20;85.80;;;;;;4996654;28;20058;-72
2024/01/01 10:23:20;;;;;;;23.43;3.57;;;6.20;85.80;;;;;;5023709;28;20048;-74
2024/01/01 10:26:09;;;;;;;19.43;4.27;;;6.30;85.80;;;;;;5026789;28;20125;-74
2024/01/01 10:28:35;;;;;;;26.27;4.17;;;6.60;86.10;;;;;;5034008;28;20148;-74
2024/01/01 10:31:02;;;;;;;28.00;4.27;;;6.80;85.70;;;;;;5036918;28;20037;-74
2024/01/01 10:33:29;;;;;;;27.10;4.23;;;6.90;85.20;;;;;;5030133;28;20068;-73
2024/01/01 10:35:58;;;;;;;21.73;4.70;;;6.90;84.80;;;;;;5026016;28;20050;-74
2024/01/01 10:38:25;;;;;;;23.53;3.83;;;6.90;84.70;;;;;;5027020;28;20049;-74
2024/01/01 10:40:55;;;;;;;23.03;3.90;;;6.90;84.60;;;;;;5025600;28;20485;-74
2024/01/01 10:43:28;;;;;;;19.40;3.63;;;6.90;84.60;;;;;;5025423;28;20046;-74
2024/01/01 10:45:59;;;;;;;23.03;3.60;;;6.90;84.60;;;;;;5024912;28;20121;-74
2024/01/01 10:48:25;;;;;;;23.87;3.53;;;6.90;84.30;;;;;;5023328;28;20045;-74
2024/01/01 10:51:18;;;;;;;25.33;3.33;;;6.90;83.90;;;;;;5027026;28;20053;-74
2024/01/01 10:54:11;;;;;;;23.73;3.73;;;6.90;83.90;;;;;;5006383;28;20085;-74
2024/01/01 10:56:52;;;;;;;18.63;3.93;;;6.90;84.10;;;;;;5015978;28;20102;-74
2024/01/01 10:59:23;;;;;;;24.47;3.97;;;6.90;84.10;;;;;;5006340;28;20088;-74
2024/01/01 11:01:52;;;;;;;20.23;4.50;;;6.90;84.00;;;;;;5013484;28;20049;-74
2024/01/01 11:04:21;;;;;;;27.40;4.10;;;6.90;84.00;;;;;;5005997;28;20452;-73
2024/01/01 11:06:47;;;;;;;22.67;4.13;;;7.00;83.90;;;;;;5006883;28;20046;-74
2024/01/01 11:09:19;;;;;;;24.67;4.43;;;7.00;83.90;;;;;;5005549;28;20045;-73
2024/01/01 11:11:49;;;;;;;19.30;3.43;;;7.00;83.60;;;;;;5009454;28;20389;-73
2024/01/01 11:14:26;;;;;;;16.80;3.33;;;7.00;83.50;;;;;;5014533;28;20140;-73
2024/01/01 11:16:54;;;;;;;20.97;3.63;;;7.00;83.10;;;;;;5011720;28;20112;-74
2024/01/01 11:19:43;;;;;;;20.50;3.90;;;7.00;83.00;;;;;;4996458;28;20081;-73
2024/01/01 11:22:18;;;;;;;17.30;3.77;;;7.00;82.30;;;;;;5010819;28;20127;-73
2024/01/01 11:24:45;;;;;;;21.37;3.93;;;7.10;82.70;;;;;;5011969;28;20501;-74
2024/01/01 11:27:31;;;;;;;18.50;3.47;;;7.10;82.30;;;;;;5006986;28;20050;-74
2024/01/01 11:30:16;;;;;;;19.97;3.80;;;7.00;82.30;;;;;;5007732;28;20401;-74
2024/01/01 11:32:43;;;;;;;22.63;3.33;;;7.00;82.10;;;;;;5005814;28;20049;-72
2024/01/01 11:35:15;;;;;;;23.17;3.60;;;7.20;81.90;;;;;;5006094;28;20076;-72
2024/01/01 11:37:45;;;;;;;20.10;4.23;;;7.20;81.60;;;;;;5008578;28;20493;-73
2024/01/01 11:40:11;;;;;;;21.80;3.83;;;7.20;81.80;;;;;;5005822;28;20050;-74
2024/01/01 11:42:38;;;;;;;13.53;3.37;;;7.10;81.70;;;;;;5015723;28;20049;-72
2024/01/01 11:45:06;;;;;;;19.27;3.30;;;7.00;81.70;;;;;;5014136;28;20053;-73
2024/01/01 11:47:33;;;;;;;17.17;2.67;;;7.00;81.80;;;;;;5022860;28;20489;-73
2024/01/01 11:50:02;;;;;;;17.90;3.10;;;7.00;81.50;;;;;;5006417;28;20104;-73
2024/01/01 11:52:28;;;;;;;15.33;2.77;;;7.00;81.30;;;;;;5010067;28;20436;-74
2024/01/01 11:54:53;;;;;;;16.70;3.37;;;6.90;81.60;;;;;;5005417;28;20054;-74
2024/01/01 11:57:19;;;;;;;18.33;3.30;;;6.90;81.60;;;;;;5006078;28;20085;-74
2024/01/01 11:59:45;;;;;;;15.63;3.57;;;6.80;82.00;;;;;;5021671;28;20389;-74
2024/01/01 12:02:12;;;;;;;15.27;3.40;;;6.80;82.40;;;;;;5025106;28;20045;-74
2024/01/01 12:04:39;;;;;;;17.63;3.63;;;6.70;82.80;;;;;;5025256;28;20095;-74
2024/01/01 12:07:05;;;;;;;19.70;4.17;;;6.70;83.00;;;;;;5025171;28;20069;-73
2024/01/01 12:09:32;;;;;;;24.87;4.10;;;6.80;83.10;;;;;;5025967;28;20057;-73
2024/01/01 12:12:05;;;;;;;23.50;4.57;;;6.80;83.00;;;;;;5025175;28;20053;-74
2024/01/01 12:14:31;;;;;;;23.30;4.37;;;6.90;83.00;;;;;;5024577;28;20408;-73
2024/01/01 12:16:57;;;;;;;24.57;3.87;;;7.00;82.90;;;;;;5024805;28;20140;-74
2024/01/01 12:19:23;;;;;;;27.57;4.03;;;7.00;82.70;;;;;;5025793;28;20057;-73
2024/01/01 12:21:51;;;;;;;24.57;4.17;;;7.00;82.70;;;;;;5025036;28;20501;-73
2024/01/01 12:24:21;;;;;;;20.03;4.50;;;7.10;82.30;;;;;;5024680;28;20045;-72
2024/01/01 12:26:50;;;;;;;21.53;3.43;;;7.10;82.00;;;;;;5025096;28;20060;-74
2024/01/01 12:29:19;;;;;;;19.33;3.33;;;7.20;81.90;;;;;;5024877;28;20393;-75
2024/01/01 12:31:46;;;;;;;19.53;3.40;;;7.10;81.90;;;;;;5025071;28;20273;-74
2024/01/01 12:34:18;;;;;;;17.20;3.17;;;7.00;81.70;;;;;;5026103;28;20128;-74
2024/01/01 12:36:47;;;;;;;;;;;7.00;81.80;;;;;;5025388;28;20045;-74
2024/01/01 12:39:17;;;;;;;19.47;3.10;;;7.00;81.70;;;;;;5023612;28;20418;-74
2024/01/01 12:41:43;;;;;;;17.67;3.80;;;7.00;82.00;;;;;;5025465;28;20103;-74
2024/01/01 12:44:09;;;;;;;16.20;3.40;;;7.00;81.80;;;;;;5024489;28;20239;-74